Time;durP1;ratioP1;P1;durP2;ratioP2;P2;SDS_P1;SDS_P2;PMS_P1;PMS_P2;Temp;Humidity;BMP_temperature;BMP_pressure;BME280_temperature;BME280_humidity;BME280_pressure;Samples;Min_cycle;Max_cycle;Signal;HPM_P1;HPM_P2
2022/07/15 00:00:43;;;;;;;;;3.80;3.80;;;;;25.46;46.82;99128.47;6341493;20;2744038;-58
2022/07/15 00:03:12;;;;;;;;;5.60;4.80;;;;;25.45;46.24;99124.00;6344460;20;2740059;-55
2022/07/15 00:05:45;;;;;;;;;3.40;3.40;;;;;25.34;46.87;99119.09;6307329;20;2747131;-56
2022/07/15 00:08:14;;;;;;;;;6.00;4.20;;;;;25.24;47.28;99113.97;6310953;20;2726282;-58
2022/07/15 00:10:44;;;;;;;;;4.60;4.60;;;;;25.37;46.81;99110.44;6342729;20;2743111;-57
2022/07/15 00:13:12;;;;;;;;;5.00;5.00;;;;;25.29;47.23;99121.59;6288289;20;2738873;-58
2022/07/15 00:15:42;;;;;;;;;5.40;5.40;;;;;25.31;47.07;99130.50;6342099;20;2736426;-58
2022/07/15 00:18:12;;;;;;;;;5.20;5.20;;;;;25.31;46.69;99133.25;6339916;20;2735757;-59
2022/07/15 00:20:42;;;;;;;;;6.80;5.60;;;;;25.23;47.10;99147.16;6341338;20;2739867;-59
2022/07/15 00:23:11;;;;;;;;;4.00;3.00;;;;;25.25;47.12;99164.25;6308604;20;2723263;-59
2022/07/15 00:25:41;;;;;;;;;2.60;2.60;;;;;25.30;46.73;99167.25;6339836;20;2737836;-60
2022/07/15 00:28:09;;;;;;;;;5.33;4.00;;;;;25.44;47.17;99182.78;6315419;20;2750244;-59
2022/07/15 00:30:42;;;;;;;;;4.60;4.00;;;;;25.46;46.96;99188.94;6342758;20;2746129;-58
2022/07/15 00:33:11;;;;;;;;;3.60;3.60;;;;;25.54;46.65;99180.53;6308610;20;2738882;-56
2022/07/15 00:35:41;;;;;;;;;5.40;5.40;;;;;25.36;47.57;99160.97;6308723;20;2741005;-58
2022/07/15 00:38:11;;;;;;;;;5.00;5.00;;;;;25.25;47.46;99186.25;6340742;20;2735853;-59
2022/07/15 00:40:49;;;;;;;;;4.33;4.33;;;;;25.31;47.29;99180.81;6316304;20;2748200;-58
2022/07/15 00:43:19;;;;;;;;;7.00;6.20;;;;;25.17;48.00;99168.03;6341281;20;2741947;-59
2022/07/15 00:45:49;;;;;;;;;5.20;5.00;;;;;24.88;47.94;99191.03;6307076;20;2741997;-59
2022/07/15 00:48:19;;;;;;;;;5.60;4.20;;;;;24.75;47.79;99187.16;6339694;20;2748389;-58
2022/07/15 00:50:49;;;;;;;;;7.40;5.80;;;;;24.50;48.30;99181.19;6309616;20;2746182;-58
2022/07/15 00:53:20;;;;;;;;;6.67;6.00;;;;;24.54;48.38;99170.69;6286600;20;2746065;-58
2022/07/15 00:55:59;;;;;;;;;4.00;4.00;;;;;24.41;48.97;99174.13;6339726;20;2752376;-56
2022/07/15 00:58:30;;;;;;;;;8.60;5.60;;;;;24.47;48.99;99167.88;6307437;20;2739884;-58
2022/07/15 01:01:00;;;;;;;;;9.80;6.00;;;;;24.40;49.07;99171.56;6309473;20;2765879;-56
2022/07/15 01:03:32;;;;;;;;;4.50;4.50;;;;;24.40;49.20;99157.84;6318863;20;2748154;-57
2022/07/15 01:06:01;;;;;;;;;7.00;7.00;;;;;24.39;49.80;99169.88;6291395;20;2620063;-58
2022/07/15 01:08:31;;;;;;;;;6.20;5.20;;;;;24.32;49.11;99156.09;6338197;20;2743018;-58
2022/07/15 01:11:00;;;;;;;;;5.60;5.60;;;;;24.21;49.40;99157.47;6309082;20;2746107;-56
2022/07/15 01:13:31;;;;;;;;;5.00;5.00;;;;;24.26;49.57;99138.53;6310295;20;2732585;-59
2022/07/15 01:15:59;;;;;;;;;6.33;6.33;;;;;24.17;49.62;99139.72;6314318;20;2740933;-58
2022/07/15 01:18:29;;;;;;;;;6.00;6.00;;;;;24.17;50.50;99128.75;6339579;20;2735685;-56
2022/07/15 01:20:58;;;;;;;;;5.20;5.20;;;;;24.31;49.57;99136.03;6341100;20;2743006;-58
2022/07/15 01:23:28;;;;;;;;;6.00;6.00;;;;;24.21;50.60;99135.50;6306324;20;2741014;-57
2022/07/15 01:25:58;;;;;;;;;7.00;7.00;;;;;24.16;50.70;99153.59;6339453;20;2744039;-56
2022/07/15 01:28:26;;;;;;;;;9.00;9.00;;;;;24.32;50.42;99134.97;6279764;20;2743559;-57
2022/07/15 01:30:55;;;;;;;;;7.67;6.67;;;;;24.47;50.11;99161.53;6314663;20;2746119;-59
2022/07/15 01:33:24;;;;;;;;;7.40;7.40;;;;;24.33;50.75;99163.28;6338230;20;2754466;-59
2022/07/15 01:35:55;;;;;;;;;9.00;6.33;;;;;24.27;50.60;99167.63;6282605;20;2743017;-58
2022/07/15 01:38:27;;;;;;;;;6.80;6.80;;;;;24.30;51.04;99175.50;6339594;20;2736710;-59
2022/07/15 01:40:58;;;;;;;;;7.60;6.20;;;;;24.38;50.75;99184.63;6339710;20;2744073;-59
2022/07/15 01:43:26;;;;;;;;;7.33;7.00;;;;;24.25;51.24;99191.72;6290283;20;2735765;-58
2022/07/15 01:45:56;;;;;;;;;9.80;8.00;;;;;24.20;50.72;99193.34;6337021;20;2753380;-59
2022/07/15 01:51:11;;;;;;;;;7.33;7.33;;;;;23.88;51.97;99204.56;6321477;20;2743982;-53
2022/07/15 01:53:40;;;;;;;;;7.00;7.00;;;;;23.89;51.83;99208.16;6318913;20;2751731;-56
2022/07/15 01:56:10;;;;;;;;;9.00;7.00;;;;;23.92;51.44;99218.75;6340105;20;2736734;-56
2022/07/15 01:58:39;;;;;;;;;7.40;7.40;;;;;23.75;52.17;99212.63;6305439;20;2748267;-58
2022/07/15 02:01:08;;;;;;;;;7.67;7.67;;;;;23.75;52.36;99218.13;6280652;20;2739838;-58
2022/07/15 02:03:38;;;;;;;;;8.80;7.00;;;;;23.86;52.65;99219.53;6344810;20;2746614;-56
2022/07/15 02:06:07;;;;;;;;;9.00;9.00;;;;;23.91;52.13;99221.66;6286175;20;2741922;-57
2022/07/15 02:08:37;;;;;;;;;5.20;5.20;;;;;23.78;52.91;99217.72;6343007;20;2736839;-58
2022/07/15 02:11:07;;;;;;;;;5.67;5.67;;;;;23.68;53.34;99206.19;6328307;20;2735668;-57
2022/07/15 02:13:37;;;;;;;;;6.60;6.60;;;;;23.57;53.65;99214.88;6344908;20;2737784;-56
2022/07/15 02:16:05;;;;;;;;;8.00;8.00;;;;;23.64;53.94;99218.56;6318401;20;2752343;-58
2022/07/15 02:18:35;;;;;;;;;8.00;8.00;;;;;23.74;53.75;99224.63;6343005;20;2745120;-58
2022/07/15 02:21:05;;;;;;;;;9.20;5.80;;;;;23.64;53.66;99213.94;6310877;20;2740914;-52
2022/07/15 02:23:35;;;;;;;;;7.00;7.00;;;;;23.28;55.48;99210.25;6311656;20;2739954;-58
2022/07/15 02:26:04;;;;;;;;;7.40;7.00;;;;;23.21;55.71;99211.00;6341562;20;2735776;-57
2022/07/15 02:28:34;;;;;;;;;7.60;7.60;;;;;23.25;55.26;99216.97;6343133;20;2741982;-58
2022/07/15 02:31:05;;;;;;;;;6.80;6.80;;;;;23.34;55.36;99224.03;6311398;20;2741955;-58
2022/07/15 02:33:35;;;;;;;;;9.00;7.60;;;;;23.05;56.58;99218.53;6311174;20;2752337;-58
2022/07/15 02:36:04;;;;;;;;;6.80;6.80;;;;;23.30;55.62;99228.22;6311428;20;2748261;-58
2022/07/15 02:38:33;;;;;;;;;7.00;7.00;;;;;23.59;55.16;99234.72;6286787;20;2750284;-58
2022/07/15 02:41:02;;;;;;;;;8.00;7.00;;;;;23.59;55.13;99242.94;6319846;20;2736707;-57
2022/07/15 02:43:31;;;;;;;;;9.67;8.00;;;;;23.35;55.91;99235.84;6319364;20;2754541;-59
2022/07/15 02:46:01;;;;;;;;;9.20;7.80;;;;;23.23;56.81;99224.50;6338937;20;2745063;-58
2022/07/15 02:48:29;;;;;;;;;9.67;8.67;;;;;23.33;55.76;99225.09;6285988;20;2758592;-55
2022/07/15 02:50:58;;;;;;;;;9.33;9.33;;;;;23.26;56.51;99232.34;6314395;20;2761692;-58
2022/07/15 02:53:28;;;;;;;;;7.60;7.60;;;;;23.28;55.99;99243.97;6340356;20;2751309;-57
2022/07/15 02:55:59;;;;;;;;;9.20;7.80;;;;;23.57;55.26;99266.97;6310501;20;2744666;-57
2022/07/15 02:58:31;;;;;;;;;8.40;8.40;;;;;23.60;55.60;99280.28;6310858;20;2750487;-55
2022/07/15 03:01:00;;;;;;;;;7.00;7.00;;;;;23.69;55.28;99300.22;6286619;20;2734629;-58
2022/07/15 03:03:30;;;;;;;;;9.20;8.00;;;;;23.77;54.63;99306.50;6341102;20;2755521;-57
2022/07/15 03:06:00;;;;;;;;;5.80;5.80;;;;;23.84;54.62;99304.69;6311953;20;2743990;-56
2022/07/15 03:08:29;;;;;;;;;8.40;7.40;;;;;23.87;54.23;99309.81;6311067;20;2741919;-57
2022/07/15 03:10:59;;;;;;;;;7.40;6.60;;;;;23.93;54.15;99308.19;6341545;20;2738820;-57
2022/07/15 03:13:29;;;;;;;;;6.40;6.40;;;;;23.98;53.60;99315.84;6308699;20;2733582;-58
2022/07/15 03:15:57;;;;;;;;;7.33;7.00;;;;;24.07;52.99;99310.09;6318565;20;2741935;-55
2022/07/15 03:18:27;;;;;;;;;6.60;6.60;;;;;24.05;53.39;99309.41;6341027;20;2736765;-56
2022/07/15 03:20:56;;;;;;;;;6.00;6.00;;;;;24.03;53.36;99316.97;6310590;20;2732536;-57
2022/07/15 03:23:26;;;;;;;;;5.80;5.80;;;;;23.92;53.89;99313.88;6341842;20;2741970;-57
2022/07/15 03:25:55;;;;;;;;;7.00;7.00;;;;;23.85;53.71;99314.63;6342175;20;2742005;-56
2022/07/15 03:28:25;;;;;;;;;7.20;7.20;;;;;23.88;53.74;99314.25;6310437;20;2744163;-57
2022/07/15 03:30:54;;;;;;;;;6.60;6.60;;;;;23.91;53.30;99303.94;6339871;20;2738824;-56
2022/07/15 03:33:24;;;;;;;;;7.00;7.00;;;;;23.98;53.73;99304.88;6342134;20;2744278;-58
2022/07/15 03:35:54;;;;;;;;;8.80;8.00;;;;;23.98;53.55;99302.13;6309744;20;2766988;-58
2022/07/15 03:38:23;;;;;;;;;6.80;6.80;;;;;23.87;53.02;99298.81;6309499;20;2726356;-58
2022/07/15 03:40:53;;;;;;;;;7.00;7.00;;;;;23.99;52.75;99309.34;6341381;20;2738230;-57
2022/07/15 03:43:26;;;;;;;;;6.20;5.40;;;;;23.85;53.23;99303.66;6342028;20;2742498;-58
2022/07/15 03:45:56;;;;;;;;;6.40;6.20;;;;;24.01;52.54;99297.13;6341330;20;2742967;-59
2022/07/15 03:48:26;;;;;;;;;6.20;6.20;;;;;23.98;52.81;99293.91;6341312;20;2739862;-57
2022/07/15 03:50:55;;;;;;;;;6.00;5.20;;;;;24.10;52.47;99297.88;6310175;20;2739919;-58
2022/07/15 03:53:25;;;;;;;;;6.60;4.60;;;;;23.95;53.49;99283.31;6311819;20;2738881;-58
2022/07/15 03:55:54;;;;;;;;;8.20;6.80;;;;;24.05;52.57;99292.97;6307952;20;2743553;-58
2022/07/15 03:58:24;;;;;;;;;6.60;6.60;;;;;24.20;52.15;99295.69;6310793;20;2733624;-58
2022/07/15 04:00:53;;;;;;;;;7.60;7.60;;;;;24.12;52.15;99301.28;6339190;20;2737890;-57
2022/07/15 04:03:23;;;;;;;;;6.00;6.00;;;;;24.13;52.35;99297.50;6310968;20;2740913;-58
2022/07/15 04:05:52;;;;;;;;;36.00;32.33;;;;;24.03;52.97;99291.44;6316491;20;3586062;-56
2022/07/15 04:08:22;;;;;;;;;6.40;5.00;;;;;24.07;52.48;99288.13;6307783;20;2741961;-58
2022/07/15 04:10:52;;;;;;;;;4.60;4.60;;;;;24.14;52.16;99287.34;6308012;20;2745035;-55
2022/07/15 04:13:20;;;;;;;;;47.67;39.00;;;;;24.13;52.03;99280.19;6286948;20;3596044;-57
2022/07/15 04:15:48;;;;;;;;;246.00;229.50;;;;;23.96;53.07;99274.03;6274050;20;1962886;-59
2022/07/15 04:18:17;;;;;;;;;59.67;47.33;;;;;23.95;53.08;99278.69;6281323;20;3620096;-56
2022/07/15 04:20:46;;;;;;;;;20.00;18.67;;;;;23.84;53.02;99271.78;6281708;20;3577399;-56
2022/07/15 04:23:16;;;;;;;;;2.40;2.40;;;;;24.10;52.50;99282.25;6310611;20;2732620;-57
2022/07/15 04:25:45;;;;;;;;;5.40;5.40;;;;;24.10;52.18;99295.97;6337349;20;2741955;-56
2022/07/15 04:28:15;;;;;;;;;4.60;4.60;;;;;23.93;53.53;99310.09;6307476;20;2739926;-57
2022/07/15 04:30:43;;;;;;;;;6.00;5.00;;;;;23.96;53.14;99315.19;6287214;20;2737299;-57
2022/07/15 04:33:14;;;;;;;;;5.00;4.00;;;;;23.90;53.80;99318.69;6341088;20;2741956;-58
2022/07/15 04:35:44;;;;;;;;;4.00;4.00;;;;;23.50;58.24;99312.59;6340812;20;2747238;-59
2022/07/15 04:38:14;;;;;;;;;4.00;4.00;;;;;23.63;55.78;99307.31;6309573;20;2747147;-58
2022/07/15 04:40:43;;;;;;;;;5.00;5.00;;;;;23.43;59.08;99313.34;6284917;20;2739973;-58
2022/07/15 04:43:14;;;;;;;;;5.60;4.60;;;;;23.51;57.34;99308.81;6336888;20;2740924;-57
2022/07/15 04:45:43;;;;;;;;;4.60;4.60;;;;;23.46;57.22;99303.91;6308863;20;2743001;-57
2022/07/15 04:51:01;;;;;;;;;5.60;4.60;;;;;23.34;59.15;99302.66;6340972;20;2738899;-57
2022/07/15 04:53:29;;;;;;;;;8.00;8.00;;;;;23.50;58.89;99307.13;6319086;20;2748155;-59
2022/07/15 04:55:58;;;;;;;;;4.00;3.67;;;;;23.60;57.00;99318.66;6317608;20;2736795;-58
2022/07/15 04:58:26;;;;;;;;;3.67;3.67;;;;;23.50;58.46;99320.81;6318066;20;2747159;-56
2022/07/15 05:00:55;;;;;;;;;3.67;3.67;;;;;23.73;57.25;99324.38;6317835;20;2750376;-55
2022/07/15 05:03:24;;;;;;;;;5.20;4.60;;;;;23.76;57.54;99331.38;6339310;20;2745551;-58
2022/07/15 05:05:55;;;;;;;;;4.00;4.00;;;;;23.96;56.87;99328.91;6339988;20;2735702;-57
2022/07/15 05:08:23;;;;;;;;;4.00;4.00;;;;;23.80;57.09;99341.78;6315588;20;2756548;-57
2022/07/15 05:10:53;;;;;;;;;3.80;3.80;;;;;24.06;55.33;99348.66;6339314;20;2745038;-58
2022/07/15 05:13:22;;;;;;;;;5.20;4.00;;;;;23.90;55.74;99363.41;6339220;20;2751320;-58
2022/07/15 05:15:52;;;;;;;;;3.40;3.40;;;;;23.97;55.53;99366.28;6336172;20;2743997;-51
2022/07/15 05:18:21;;;;;;;;;4.00;4.00;;;;;23.69;58.15;99366.84;6307761;20;2737788;-58
2022/07/15 05:20:51;;;;;;;;;8.80;6.00;;;;;23.25;64.66;99381.34;6340224;20;2748265;-58
2022/07/15 05:23:21;;;;;;;;;4.00;3.60;;;;;22.99;65.43;99377.06;6298416;20;2736739;-56
2022/07/15 05:25:50;;;;;;;;;6.60;4.00;;;;;22.75;67.52;99367.09;6337531;20;2739878;-57
2022/07/15 05:28:19;;;;;;;;;4.00;3.00;;;;;22.88;66.38;99380.19;6311921;20;2752448;-54
2022/07/15 05:30:48;;;;;;;;;3.00;3.00;;;;;22.81;63.79;99386.56;6338591;20;2744023;-57
2022/07/15 05:33:18;;;;;;;;;3.00;3.00;;;;;22.91;65.23;99384.47;6339105;20;2745166;-57
2022/07/15 05:35:48;;;;;;;;;3.40;3.40;;;;;22.80;64.67;99347.38;6305925;20;2722118;-57
2022/07/15 05:38:23;;;;;;;;;5.00;3.20;;;;;22.67;68.80;99338.91;6334910;20;2750411;-59
2022/07/15 05:40:53;;;;;;;;;4.40;4.40;;;;;22.82;67.93;99356.28;6306280;20;2742987;-56
2022/07/15 05:43:23;;;;;;;;;4.40;4.40;;;;;22.91;67.85;99363.41;6347899;20;2747147;-55
2022/07/15 05:45:52;;;;;;;;;4.00;4.00;;;;;22.81;68.66;99367.41;6322445;20;2748253;-58
2022/07/15 05:48:21;;;;;;;;;5.20;5.20;;;;;22.35;74.17;99357.22;6337157;20;2747159;-57
2022/07/15 05:50:50;;;;;;;;;5.00;5.00;;;;;22.54;72.48;99362.28;6283038;20;2734746;-58
2022/07/15 05:53:19;;;;;;;;;4.80;4.80;;;;;22.41;74.15;99367.47;6339317;20;2745033;-58
2022/07/15 05:55:48;;;;;;;;;5.00;5.00;;;;;22.79;69.20;99384.84;6283341;20;2749281;-59
2022/07/15 05:58:18;;;;;;;;;4.00;4.00;;;;;22.71;70.13;99389.53;6337282;20;2729449;-56
2022/07/15 06:00:46;;;;;;;;;5.00;3.33;;;;;22.75;69.91;99385.41;6316910;20;2740910;-57
2022/07/15 06:03:14;;;;;;;;;6.00;5.00;;;;;22.66;70.46;99389.22;6313758;20;2748446;-56
2022/07/15 06:05:43;;;;;;;;;4.00;4.00;;;;;22.65;70.82;99402.06;6315295;20;2735786;-55
2022/07/15 06:08:13;;;;;;;;;4.20;4.20;;;;;22.64;69.04;99402.22;6338495;20;2744007;-57
2022/07/15 06:10:43;;;;;;;;;4.00;4.00;;;;;22.50;72.17;99403.84;6317430;20;2725288;-56
2022/07/15 06:13:14;;;;;;;;;3.40;3.40;;;;;22.48;69.35;99403.16;6337046;20;2738791;-57
2022/07/15 06:15:43;;;;;;;;;4.00;4.00;;;;;22.29;69.17;99396.25;6310469;20;2738818;-58
2022/07/15 06:18:14;;;;;;;;;4.14;4.14;;;;;22.54;68.10;99408.78;6353190;20;3458721;-58
2022/07/15 06:20:44;;;;;;;;;5.80;3.60;;;;;22.37;68.37;99398.94;6337380;20;2748214;-59
2022/07/15 06:23:14;;;;;;;;;3.20;3.20;;;;;22.53;68.42;99426.22;6334643;20;2737821;-57
2022/07/15 06:25:42;;;;;;;;;4.00;4.00;;;;;22.56;68.02;99425.88;6313221;20;2742972;-59
2022/07/15 06:28:11;;;;;;;;;4.00;4.00;;;;;22.58;67.87;99437.47;6314936;20;2737156;-58
2022/07/15 06:30:39;;;;;;;;;4.67;4.67;;;;;22.52;68.74;99460.09;6320371;20;2734793;-58
2022/07/15 06:33:08;;;;;;;;;3.60;3.60;;;;;22.10;69.87;99474.88;6339238;20;2739889;-58
2022/07/15 06:35:38;;;;;;;;;4.00;4.00;;;;;22.11;71.98;99482.03;6339793;20;2747239;-58
2022/07/15 06:38:12;;;;;;;;;4.67;4.67;;;;;21.95;73.18;99476.63;6316288;20;2737751;-59
2022/07/15 06:40:41;;;;;;;;;6.00;4.33;;;;;21.84;74.88;99464.16;6313318;20;2748200;-58
2022/07/15 06:43:11;;;;;;;;;4.20;4.20;;;;;21.76;75.03;99472.38;6338513;20;2748399;-57
2022/07/15 06:45:40;;;;;;;;;5.33;5.33;;;;;21.57;75.83;99456.34;6315276;20;2735124;-59
2022/07/15 06:48:08;;;;;;;;;4.67;4.67;;;;;21.55;77.51;99447.44;6318646;20;2719008;-58
2022/07/15 06:50:36;;;;;;;;;5.33;5.33;;;;;21.39;77.11;99448.28;6322359;20;2737799;-57
2022/07/15 06:53:06;;;;;;;;;5.20;5.20;;;;;21.52;77.43;99443.19;6344409;20;2735863;-57
2022/07/15 06:55:37;;;;;;;;;4.00;4.00;;;;;21.49;77.87;99435.31;6360516;20;2464280;-54
2022/07/15 06:58:07;;;;;;;;;5.20;5.20;;;;;21.40;78.62;99433.59;6341423;20;2739013;-60
2022/07/15 07:00:36;;;;;;;;;6.40;6.40;;;;;21.45;79.35;99442.16;6340316;20;2734676;-59
2022/07/15 07:03:06;;;;;;;;;7.00;7.00;;;;;21.31;78.90;99468.22;6344128;20;2748292;-59
2022/07/15 07:05:35;;;;;;;;;6.40;6.40;;;;;21.08;81.90;99486.28;6310258;20;2740009;-60
2022/07/15 07:08:05;;;;;;;;;7.00;7.00;;;;;20.94;83.31;99472.25;6341788;20;2750330;-59
2022/07/15 07:10:34;;;;;;;;;6.00;6.00;;;;;21.08;83.06;99468.00;6309767;20;2734640;-60
2022/07/15 07:13:06;;;;;;;;;8.00;6.43;;;;;20.91;84.35;99471.75;6362770;20;3456643;-60
2022/07/15 07:15:36;;;;;;;;;9.00;8.20;;;;;20.95;84.36;99484.00;6342284;20;2751343;-59
2022/07/15 07:18:11;;;;;;;;;7.33;7.33;;;;;21.10;82.81;99484.25;6285179;20;2750246;-60
2022/07/15 07:20:43;;;;;;;;;9.00;8.00;;;;;20.96;84.87;99497.50;6315324;20;2700406;-59
2022/07/15 07:23:13;;;;;;;;;8.60;7.20;;;;;20.83;86.01;99502.59;6341436;20;2753376;-56
2022/07/15 07:25:42;;;;;;;;;9.20;9.20;;;;;20.88;86.71;99504.78;6306608;20;2740977;-60
2022/07/15 07:28:13;;;;;;;;;11.00;9.80;;;;;21.02;85.08;99518.69;6307204;20;2788788;-59
2022/07/15 07:30:43;;;;;;;;;5.80;5.80;;;;;21.17;87.16;99520.75;6311906;20;2742986;-60
2022/07/15 07:33:12;;;;;;;;;7.67;7.67;;;;;21.05;85.97;99509.31;6283866;20;2747119;-59
2022/07/15 07:35:42;;;;;;;;;6.00;6.00;;;;;21.03;85.63;99509.44;6317084;20;2740003;-59
2022/07/15 07:38:12;;;;;;;;;8.00;6.00;;;;;20.97;85.87;99552.94;6341981;20;2739833;-60
2022/07/15 07:40:42;;;;;;;;;10.00;10.00;;;;;21.04;87.31;99560.31;6340699;20;2786707;-59
2022/07/15 07:43:11;;;;;;;;;9.80;8.80;;;;;21.08;86.50;99552.66;6309698;20;2772251;-60
2022/07/15 07:45:40;;;;;;;;;10.00;10.00;;;;;21.12;87.07;99567.69;6282897;20;3524197;-60
2022/07/15 07:48:09;;;;;;;;;9.80;9.80;;;;;21.18;86.36;99572.47;6340054;20;2761822;-60
2022/07/15 07:50:39;;;;;;;;;9.00;9.00;;;;;21.22;85.43;99581.19;6312251;20;2758671;-61
2022/07/15 07:53:09;;;;;;;;;8.40;8.40;;;;;21.00;87.19;99571.72;6309015;20;2753469;-59
2022/07/15 07:55:39;;;;;;;;;9.33;9.33;;;;;21.20;86.67;99559.53;6280498;20;3481623;-60
2022/07/15 07:58:07;;;;;;;;;9.00;8.00;;;;;21.01;85.22;99565.22;6323691;20;2750447;-59
2022/07/15 08:00:36;;;;;;;;;11.00;10.67;;;;;20.85;85.86;99570.63;6313081;20;2794363;-59
2022/07/15 08:03:05;;;;;;;;;10.00;10.00;;;;;21.03;86.13;99564.06;6313532;20;2789923;-60
2022/07/15 08:05:33;;;;;;;;;8.00;8.00;;;;;21.02;84.00;99573.28;6322940;20;2745112;-59
2022/07/15 08:08:20;;;;;;;;;13.83;10.83;;;;;20.89;85.25;99582.94;6309072;20;2816951;-60
2022/07/15 08:10:55;;;;;;;;;9.60;8.60;;;;;21.00;84.83;99578.03;6339293;20;2773195;-58
2022/07/15 08:13:27;;;;;;;;;11.67;11.67;;;;;21.13;83.77;99591.22;6285815;20;2800389;-59
2022/07/15 08:15:56;;;;;;;;;13.00;10.00;;;;;20.94;85.18;99602.41;6312064;20;3512776;-58
2022/07/15 08:18:32;;;;;;;;;8.40;8.40;;;;;21.21;84.18;99588.53;6338735;20;2748204;-58
2022/07/15 08:21:03;;;;;;;;;10.00;10.00;;;;;21.02;83.86;99595.13;6282034;20;2788912;-50
2022/07/15 08:23:32;;;;;;;;;13.00;12.00;;;;;21.30;83.60;99603.09;6313809;20;3537730;-51
2022/07/15 08:26:01;;;;;;;;;11.33;11.33;;;;;21.24;83.17;99610.03;6280151;20;2786762;-50
2022/07/15 08:28:30;;;;;;;;;9.00;9.00;;;;;21.27;83.21;99609.72;6339999;20;2749212;-53
2022/07/15 08:31:19;;;;;;;;;11.00;11.00;;;;;21.21;82.14;99604.06;6280546;20;2809815;-49
2022/07/15 08:33:50;;;;;;;;;9.00;8.00;;;;;21.05;82.51;99588.47;6314672;20;2756712;-47
2022/07/15 08:36:17;;;;;;;;;13.00;11.00;;;;;21.18;82.20;99568.91;6317519;20;2782737;-50
2022/07/15 08:38:48;;;;;;;;;7.80;7.80;;;;;21.41;81.72;99550.06;6306105;20;2746259;-49
2022/07/15 08:41:17;;;;;;;;;10.00;8.67;;;;;21.43;80.41;99548.88;6318981;20;2759786;-49
2022/07/15 08:43:47;;;;;;;;;10.33;10.33;;;;;21.17;82.64;99532.56;6310446;20;2792051;-49
2022/07/15 08:46:16;;;;;;;;;11.00;9.67;;;;;21.36;81.15;99568.78;6309741;20;2804549;-48
2022/07/15 08:48:51;;;;;;;;;8.00;8.00;;;;;21.17;81.72;99569.91;6338662;20;2752509;-47
2022/07/15 08:51:24;;;;;;;;;10.33;10.00;;;;;21.35;81.93;99594.38;6312669;20;2795041;-48
2022/07/15 08:53:55;;;;;;;;;8.00;8.00;;;;;21.32;83.24;99591.97;6337830;20;2737748;-47
2022/07/15 08:56:25;;;;;;;;;8.80;8.80;;;;;21.62;80.75;99610.53;6337429;20;2771206;-48
2022/07/15 08:58:55;;;;;;;;;11.00;11.00;;;;;21.59;80.53;99618.19;6276771;20;3523218;-49
2022/07/15 09:01:31;;;;;;;;;11.00;11.00;;;;;21.87;80.42;99626.97;6336098;20;2789859;-48
2022/07/15 09:04:01;;;;;;;;;10.67;9.33;;;;;21.70;79.75;99626.94;6287965;20;2776363;-49
2022/07/15 09:06:48;;;;;;;;;9.00;9.00;;;;;21.70;78.80;99632.41;6336737;20;2755499;-51
2022/07/15 09:09:36;;;;;;;;;8.00;8.00;;;;;21.55;78.63;99617.69;6277984;20;2736752;-52
2022/07/15 09:12:11;;;;;;;;;8.33;8.33;;;;;21.62;78.44;99618.75;6321702;20;2752368;-59
2022/07/15 09:14:45;;;;;;;;;9.00;9.00;;;;;21.85;77.31;99623.53;6313142;20;2755003;-55
2022/07/15 09:17:15;;;;;;;;;8.67;8.67;;;;;21.96;77.76;99617.78;6308095;20;2752338;-53
2022/07/15 09:20:11;;;;;;;;;10.67;9.00;;;;;21.51;78.14;99618.19;6310679;20;3489851;-55
2022/07/15 09:22:53;;;;;;;;;12.67;11.00;;;;;21.76;77.86;99625.41;6303638;20;3536775;-54
2022/07/15 09:25:24;;;;;;;;;10.00;9.60;;;;;21.83;78.78;99623.72;6339175;20;2789842;-49
2022/07/15 09:27:57;;;;;;;;;8.40;8.40;;;;;22.04;77.79;99623.25;6306045;20;2754423;-51
2022/07/15 09:33:43;;;;;;;;;10.67;10.67;;;;;22.52;76.34;99637.97;6318345;20;2786779;-47
2022/07/15 09:36:23;;;;;;;;;10.00;10.00;;;;;22.38;76.38;99660.56;6315944;20;2791909;-51
2022/07/15 09:39:05;;;;;;;;;13.33;10.00;;;;;22.42;75.84;99637.28;6318149;20;2783574;-54
2022/07/15 09:41:41;;;;;;;;;10.00;10.00;;;;;22.40;75.60;99654.91;6314976;20;2677343;-51
2022/07/15 09:44:22;;;;;;;;;11.00;11.00;;;;;22.20;78.07;99668.91;6314310;20;3521082;-51
2022/07/15 09:47:00;;;;;;;;;11.00;9.33;;;;;22.25;79.34;99657.44;6319900;20;2782630;-50
2022/07/15 09:49:29;;;;;;;;;11.67;11.00;;;;;22.22;78.06;99652.31;6315108;20;3521098;-50
2022/07/15 09:52:07;;;;;;;;;13.33;12.00;;;;;22.10;78.46;99649.91;6314924;20;3509644;-53
2022/07/15 09:54:55;;;;;;;;;11.67;11.67;;;;;22.12;78.29;99628.72;6313970;20;2483621;-52
2022/07/15 09:57:23;;;;;;;;;12.00;12.00;;;;;22.18;77.54;99645.47;6314420;20;2791938;-54
2022/07/15 09:59:52;;;;;;;;;11.00;11.00;;;;;22.18;78.55;99632.63;6313394;20;3515849;-53
2022/07/15 10:02:20;;;;;;;;;13.00;13.00;;;;;22.19;78.76;99619.84;6285120;20;2491912;-52
2022/07/15 10:04:50;;;;;;;;;11.00;10.00;;;;;22.44;77.35;99637.97;6316985;20;2784898;-50
2022/07/15 10:07:23;;;;;;;;;13.33;13.00;;;;;22.51;76.98;99647.22;6313865;20;3539888;-49
2022/07/15 10:09:58;;;;;;;;;14.00;12.67;;;;;22.48;78.00;99653.00;6281005;20;3530583;-55
2022/07/15 10:13:13;;;;;;;;;11.00;11.00;;;;;22.61;77.13;99651.63;6284072;20;2604428;-54
2022/07/15 10:16:04;;;;;;;;;12.00;12.00;;;;;22.67;75.96;99639.97;6313260;20;3537749;-52
2022/07/15 10:18:58;;;;;;;;;14.67;11.33;;;;;22.34;76.91;99645.50;6278229;20;3529508;-53
2022/07/15 10:22:20;;;;;;;;;14.67;12.33;;;;;22.45;76.36;99647.88;6315504;20;3527485;-50
2022/07/15 10:25:18;;;;;;;;;10.67;10.67;;;;;22.61;75.46;99641.53;6283242;20;3516988;-52
2022/07/15 10:28:22;;;;;;;;;14.67;12.00;;;;;22.27;75.93;99628.91;6282350;20;3523489;-50
2022/07/15 10:31:28;;;;;;;;;15.67;13.00;;;;;22.41;74.74;99618.28;6314333;20;2483634;-51
2022/07/15 10:34:03;;;;;;;;;13.00;13.00;;;;;22.77;74.94;99613.28;6316122;20;3527378;-51
2022/07/15 10:36:47;;;;;;;;;16.67;16.67;;;;;23.06;73.58;99600.91;6287895;20;2483590;-51
2022/07/15 10:39:22;;;;;;;;;15.00;13.00;;;;;22.98;72.54;99588.09;6321743;20;2483699;-50
2022/07/15 10:41:59;;;;;;;;;16.00;16.00;;;;;22.86;74.02;99552.00;6317243;20;2828409;-48
2022/07/15 10:44:33;;;;;;;;;47.00;34.00;;;;;22.92;73.88;99529.38;6291299;20;4389833;-51
2022/07/15 10:47:14;;;;;;;;;14.00;12.33;;;;;23.03;73.71;99557.44;6320317;20;3527423;-50
2022/07/15 10:49:47;;;;;;;;;19.00;16.00;;;;;22.84;75.86;99569.63;6321538;20;3564822;-54
2022/07/15 10:52:19;;;;;;;;;17.00;16.00;;;;;22.81;76.02;99583.69;6318968;20;2483587;-52
2022/07/15 10:54:59;;;;;;;;;16.33;13.33;;;;;22.51;76.81;99578.78;6318328;20;3533617;-49
2022/07/15 10:57:48;;;;;;;;;18.00;15.00;;;;;22.70;75.51;99576.69;6317750;20;2819053;-54
2022/07/15 11:00:30;;;;;;;;;16.50;15.00;;;;;22.58;74.58;99568.84;6287691;20;2820213;-49
2022/07/15 11:03:21;;;;;;;;;13.67;13.67;;;;;22.64;75.14;99561.81;6286745;20;3538311;-51
2022/07/15 11:05:53;;;;;;;;;14.00;14.00;;;;;22.80;73.39;99563.63;6283624;20;2816937;-50
2022/07/15 11:08:37;;;;;;;;;16.00;16.00;;;;;23.05;73.54;99577.28;6288422;20;2827351;-46
2022/07/15 11:11:14;;;;;;;;;16.33;13.67;;;;;22.89;73.79;99589.97;6286727;20;2492338;-52
2022/07/15 11:13:48;;;;;;;;;16.33;15.33;;;;;23.29;72.68;99590.88;6320663;20;3556895;-53
2022/07/15 11:16:20;;;;;;;;;38.33;32.00;;;;;23.61;71.41;99589.81;6318142;20;3599163;-55
2022/07/15 11:18:55;;;;;;;;;26.33;21.00;;;;;23.63;70.75;99587.75;6286662;20;2479522;-54
2022/07/15 11:21:24;;;;;;;;;13.33;13.33;;;;;24.01;68.97;99589.75;6318219;20;3526308;-55
2022/07/15 11:23:54;;;;;;;;;12.00;12.00;;;;;24.13;68.12;99588.28;6287194;20;2807610;-55
2022/07/15 11:26:23;;;;;;;;;11.33;11.33;;;;;24.07;65.27;99587.13;6285058;20;3517953;-53
2022/07/15 11:28:58;;;;;;;;;13.67;12.33;;;;;24.14;64.12;99584.47;6315978;20;3537740;-55
2022/07/15 11:31:26;;;;;;;;;11.67;11.67;;;;;24.41;63.23;99584.91;6287370;20;2483561;-54
2022/07/15 11:33:55;;;;;;;;;11.00;11.00;;;;;24.18;62.57;99591.31;6318556;20;3524281;-54
2022/07/15 11:36:24;;;;;;;;;10.00;10.00;;;;;24.23;63.14;99588.88;6318281;20;3511786;-55
2022/07/15 11:38:53;;;;;;;;;12.67;12.67;;;;;23.92;62.96;99596.34;6318324;20;3521173;-51
2022/07/15 11:44:31;;;;;;;;;21.00;18.50;;;;;24.05;63.43;99585.59;6287222;20;2844043;-53